Time;durP1;ratioP1;P1;durP2;ratioP2;P2;SDS_P1;SDS_P2;PMS_P1;PMS_P2;Temp;Humidity;BMP_temperature;BMP_pressure;BME280_temperature;BME280_humidity;BME280_pressure;Samples;Min_cycle;Max_cycle;Signal;HPM_P1;HPM_P2
2021/08/31 00:01:49;;;;;;;8.50;6.50;;;17.00;62.30;;;;;;5025670;28;20029;-79
2021/08/31 00:04:15;;;;;;;7.35;6.57;;;17.00;62.30;;;;;;5013701;28;20068;-81
2021/08/31 00:06:41;;;;;;;7.72;7.03;;;17.00;62.20;;;;;;5022803;28;20168;-78
2021/08/31 00:09:07;;;;;;;7.13;6.35;;;17.00;62.30;;;;;;5014917;28;20448;-83
2021/08/31 00:11:33;;;;;;;7.40;6.28;;;16.90;62.10;;;;;;5025790;28;20030;-79
2021/08/31 00:13:59;;;;;;;6.63;6.03;;;17.00;62.30;;;;;;5015900;28;20242;-86
2021/08/31 00:16:25;;;;;;;6.63;5.97;;;17.00;62.30;;;;;;5007756;28;20030;-82
2021/08/31 00:18:51;;;;;;;7.38;6.53;;;16.90;62.10;;;;;;5005773;28;20038;-83
2021/08/31 00:21:16;;;;;;;6.63;5.75;;;16.90;62.10;;;;;;5005745;28;20030;-84
2021/08/31 00:23:42;;;;;;;6.40;5.50;;;16.90;62.20;;;;;;5005478;28;20030;-79
2021/08/31 00:26:08;;;;;;;6.13;5.53;;;16.90;62.20;;;;;;5006083;28;20068;-80
2021/08/31 00:28:35;;;;;;;7.10;6.40;;;16.90;62.10;;;;;;4993532;28;20029;-81
2021/08/31 00:31:01;;;;;;;6.97;5.47;;;16.90;62.20;;;;;;5025510;28;20191;-81
2021/08/31 00:33:30;;;;;;;5.70;5.18;;;16.90;62.20;;;;;;5041637;28;20355;-79
2021/08/31 00:35:58;;;;;;;6.40;5.80;;;16.90;62.20;;;;;;5025762;28;20188;-82
2021/08/31 00:38:24;;;;;;;5.80;5.28;;;16.90;62.20;;;;;;5021863;28;20148;-78
2021/08/31 00:40:50;;;;;;;5.95;5.25;;;16.90;62.20;;;;;;4989228;28;20472;-81
2021/08/31 00:43:18;;;;;;;5.82;5.32;;;16.90;62.10;;;;;;5006218;28;20038;-81
2021/08/31 00:45:44;;;;;;;6.03;5.43;;;16.90;62.10;;;;;;5021511;28;20057;-84
2021/08/31 00:48:10;;;;;;;6.30;5.40;;;16.90;62.10;;;;;;5021822;28;20037;-81
2021/08/31 00:50:36;;;;;;;5.63;4.82;;;16.90;62.10;;;;;;5005485;28;20300;-79
2021/08/31 00:53:02;;;;;;;5.50;4.97;;;16.90;62.20;;;;;;5005273;28;20034;-79
2021/08/31 00:55:28;;;;;;;5.25;4.65;;;16.90;62.10;;;;;;5007568;28;20132;-85
2021/08/31 00:57:54;;;;;;;6.45;5.45;;;16.90;62.10;;;;;;5024734;28;20239;-78
2021/08/31 01:00:21;;;;;;;7.00;5.35;;;16.90;62.10;;;;;;5007923;28;20141;-81
2021/08/31 01:02:47;;;;;;;6.93;5.43;;;16.90;62.20;;;;;;5025659;28;20494;-80
2021/08/31 01:05:13;;;;;;;4.47;4.07;;;16.90;62.20;;;;;;5002222;28;20125;-80
2021/08/31 01:07:40;;;;;;;6.78;5.25;;;16.90;62.10;;;;;;4985826;28;20450;-78
2021/08/31 01:10:06;;;;;;;5.85;4.47;;;16.90;62.20;;;;;;5020169;28;20448;-85
2021/08/31 01:12:32;;;;;;;4.68;4.18;;;16.90;62.10;;;;;;5008934;28;20029;-78
2021/08/31 01:14:59;;;;;;;5.78;4.75;;;16.90;62.10;;;;;;5008044;28;20477;-79
2021/08/31 01:17:31;;;;;;;5.03;4.47;;;16.90;62.10;;;;;;5006195;28;20034;-79
2021/08/31 01:19:59;;;;;;;4.93;4.45;;;16.90;62.10;;;;;;5014898;28;20363;-80
2021/08/31 01:22:25;;;;;;;4.78;4.30;;;16.90;62.20;;;;;;4989463;28;20565;-79
2021/08/31 01:25:02;;;;;;;7.18;4.88;;;16.90;62.20;;;;;;5003215;28;20660;-78
2021/08/31 01:27:29;;;;;;;5.30;4.80;;;16.90;62.30;;;;;;5005884;28;20041;-78
2021/08/31 01:29:56;;;;;;;5.30;4.78;;;16.80;62.00;;;;;;5004823;28;20034;-77
2021/08/31 01:32:22;;;;;;;6.90;4.35;;;16.90;62.20;;;;;;5010797;28;20527;-84
2021/08/31 01:34:48;;;;;;;6.30;4.30;;;16.80;62.00;;;;;;5023370;28;20029;-80
2021/08/31 01:37:14;;;;;;;5.30;4.30;;;16.80;62.00;;;;;;5008981;28;20102;-77
2021/08/31 01:39:40;;;;;;;4.93;4.32;;;16.80;62.10;;;;;;5012136;28;20037;-78
2021/08/31 01:42:07;;;;;;;4.75;4.25;;;16.80;62.10;;;;;;5005428;28;20044;-81
2021/08/31 01:44:33;;;;;;;6.90;4.75;;;16.80;62.10;;;;;;5005418;28;20053;-77
2021/08/31 01:46:59;;;;;;;5.90;5.10;;;16.80;62.10;;;;;;5012858;28;20095;-78
2021/08/31 01:49:25;;;;;;;5.07;4.32;;;16.80;62.10;;;;;;4994757;28;20027;-83
2021/08/31 01:51:51;;;;;;;5.40;4.85;;;16.90;62.80;;;;;;4991074;28;20034;-80
2021/08/31 01:54:17;;;;;;;5.35;4.85;;;16.80;62.10;;;;;;5006019;28;20501;-78
2021/08/31 01:56:43;;;;;;;5.20;4.72;;;16.90;62.30;;;;;;4990571;28;20034;-81
2021/08/31 01:59:09;;;;;;;4.68;4.28;;;16.80;62.10;;;;;;4990868;28;20031;-79
2021/08/31 02:01:37;;;;;;;6.15;4.38;;;16.90;62.30;;;;;;5005920;28;20038;-82
2021/08/31 02:04:04;;;;;;;5.15;4.68;;;16.80;62.10;;;;;;4989499;28;20457;-84
2021/08/31 02:06:30;;;;;;;4.43;3.97;;;16.80;62.20;;;;;;5005050;28;20045;-78
2021/08/31 02:08:56;;;;;;;5.07;4.57;;;16.80;62.20;;;;;;5005257;28;20054;-79
2021/08/31 02:11:22;;;;;;;5.28;4.15;;;16.90;62.40;;;;;;4989120;28;20092;-83
2021/08/31 02:13:48;;;;;;;5.15;4.30;;;16.80;62.10;;;;;;5005780;28;20058;-79
2021/08/31 02:16:14;;;;;;;5.20;4.30;;;16.80;62.20;;;;;;5005728;28;20586;-80
2021/08/31 02:18:42;;;;;;;5.65;5.13;;;16.80;62.20;;;;;;5017866;28;20077;-82
2021/08/31 02:21:11;;;;;;;4.93;4.03;;;16.80;62.20;;;;;;4989121;28;20030;-80
2021/08/31 02:23:38;;;;;;;5.05;4.50;;;16.80;62.30;;;;;;5021602;28;20505;-80
2021/08/31 02:26:04;;;;;;;5.05;4.55;;;16.80;62.30;;;;;;5021549;28;20065;-78
2021/08/31 02:28:30;;;;;;;5.43;4.03;;;16.80;62.30;;;;;;5004770;28;20046;-83
2021/08/31 02:30:56;;;;;;;4.55;4.15;;;16.80;62.30;;;;;;4990987;28;20350;-80
2021/08/31 02:33:22;;;;;;;4.55;4.15;;;16.80;62.30;;;;;;5005471;28;20026;-80
2021/08/31 02:35:48;;;;;;;4.35;3.95;;;16.80;62.40;;;;;;5021443;28;20041;-79
2021/08/31 02:38:14;;;;;;;5.40;4.05;;;16.80;62.40;;;;;;4989015;28;20057;-79
2021/08/31 02:40:41;;;;;;;4.93;4.38;;;16.70;62.20;;;;;;4990589;28;20401;-82
2021/08/31 02:43:07;;;;;;;5.03;4.00;;;16.70;62.30;;;;;;5022308;28;20023;-81
2021/08/31 02:45:32;;;;;;;4.18;3.78;;;16.70;62.30;;;;;;5022162;28;20070;-78
2021/08/31 02:47:58;;;;;;;4.97;3.97;;;16.70;62.30;;;;;;5035186;28;20369;-84
2021/08/31 02:50:24;;;;;;;4.68;4.15;;;16.70;62.40;;;;;;5028705;28;20036;-78
2021/08/31 02:52:50;;;;;;;4.90;4.40;;;16.60;62.20;;;;;;5028619;28;20044;-81
2021/08/31 02:55:16;;;;;;;5.00;4.00;;;16.70;62.40;;;;;;5028736;28;20393;-84
2021/08/31 02:57:42;;;;;;;4.53;4.10;;;16.70;62.50;;;;;;5028136;28;20034;-82
2021/08/31 03:00:09;;;;;;;4.90;4.20;;;16.60;62.30;;;;;;5032371;28;20037;-82
2021/08/31 03:02:36;;;;;;;3.40;3.10;;;16.60;62.40;;;;;;5032372;28;20045;-82
2021/08/31 03:05:02;;;;;;;3.60;3.30;;;16.60;62.40;;;;;;5031550;28;20037;-82
2021/08/31 03:07:28;;;;;;;3.58;3.28;;;16.60;62.50;;;;;;5031670;28;20472;-85
2021/08/31 03:09:54;;;;;;;4.47;4.03;;;16.60;62.50;;;;;;5032979;28;20110;-84
2021/08/31 03:12:20;;;;;;;5.47;3.85;;;16.60;62.50;;;;;;5032866;28;20053;-78
2021/08/31 03:14:46;;;;;;;3.35;3.03;;;16.60;62.50;;;;;;5014936;28;20060;-81
2021/08/31 03:17:26;;;;;;;4.32;3.25;;;16.60;62.50;;;;;;5108312;27;20442;-87
2021/08/31 03:19:52;;;;;;;4.68;3.38;;;16.60;62.60;;;;;;5107010;28;20035;-81
2021/08/31 03:22:18;;;;;;;3.85;3.05;;;16.60;62.70;;;;;;5106706;28;20542;-82
2021/08/31 03:24:44;;;;;;;2.75;2.55;;;16.60;62.70;;;;;;5106986;28;20115;-83
2021/08/31 03:27:10;;;;;;;3.45;2.80;;;16.50;62.60;;;;;;5107928;28;20122;-83
2021/08/31 03:29:36;;;;;;;2.83;2.45;;;16.50;62.70;;;;;;5106356;28;20123;-85
2021/08/31 03:32:02;;;;;;;3.10;2.50;;;16.50;62.70;;;;;;5089903;28;20092;-82
2021/08/31 03:34:28;;;;;;;5.78;3.38;;;16.50;62.80;;;;;;5106282;28;20034;-81
2021/08/31 03:36:54;;;;;;;3.00;2.70;;;16.50;62.90;;;;;;5106683;28;20040;-84
2021/08/31 03:39:20;;;;;;;2.55;2.35;;;16.50;62.90;;;;;;5105971;28;20032;-80
2021/08/31 03:41:45;;;;;;;3.08;2.78;;;16.40;62.80;;;;;;5105944;28;20040;-84
2021/08/31 03:44:12;;;;;;;3.10;2.55;;;16.40;62.80;;;;;;5089021;28;20505;-80
2021/08/31 03:46:38;;;;;;;2.60;2.40;;;16.40;62.90;;;;;;5105602;28;20168;-81
2021/08/31 03:49:03;;;;;;;3.13;2.80;;;16.40;63.00;;;;;;5105788;28;20096;-83
2021/08/31 03:51:29;;;;;;;3.50;2.22;;;16.40;63.00;;;;;;5107167;28;20058;-81
2021/08/31 03:53:56;;;;;;;2.85;2.35;;;16.30;62.80;;;;;;5105998;28;20059;-85
2021/08/31 03:56:22;;;;;;;2.78;2.30;;;16.30;62.80;;;;;;5088611;28;20054;-84
2021/08/31 03:58:48;;;;;;;4.07;2.30;;;16.30;63.00;;;;;;5105409;28;20032;-83
2021/08/31 04:01:14;;;;;;;2.90;2.20;;;16.30;63.00;;;;;;5106282;28;20119;-79
2021/08/31 04:03:40;;;;;;;2.20;1.98;;;16.30;63.10;;;;;;5105650;28;20154;-81
2021/08/31 04:06:05;;;;;;;2.03;1.70;;;16.30;63.10;;;;;;5106691;28;20028;-82
2021/08/31 04:08:31;;;;;;;2.30;2.10;;;16.30;63.20;;;;;;5105028;28;20028;-78
2021/08/31 04:10:57;;;;;;;2.80;2.45;;;16.30;63.20;;;;;;5105226;28;20031;-84
2021/08/31 04:13:23;;;;;;;1.98;1.70;;;16.30;63.30;;;;;;5088453;28;20085;-84
2021/08/31 04:15:49;;;;;;;2.75;2.08;;;16.30;63.30;;;;;;5105087;28;20470;-82
2021/08/31 04:18:15;;;;;;;2.13;1.92;;;16.30;63.30;;;;;;5088153;28;20039;-81
2021/08/31 04:20:42;;;;;;;2.17;1.98;;;16.30;63.30;;;;;;5088911;28;20074;-83
2021/08/31 04:23:08;;;;;;;2.72;2.17;;;16.20;63.20;;;;;;5089164;28;20016;-84
2021/08/31 04:25:34;;;;;;;1.67;1.55;;;16.20;63.30;;;;;;5106169;28;20044;-84
2021/08/31 04:28:00;;;;;;;3.10;2.53;;;16.20;63.30;;;;;;5096158;28;20032;-82
2021/08/31 04:30:26;;;;;;;2.63;2.28;;;16.20;63.40;;;;;;5092352;28;20089;-84
2021/08/31 04:32:52;;;;;;;2.22;1.90;;;16.20;63.40;;;;;;5075279;28;20497;-81
2021/08/31 04:35:18;;;;;;;2.65;2.10;;;16.20;63.50;;;;;;5091716;28;20339;-79
2021/08/31 04:37:44;;;;;;;4.32;2.63;;;16.20;63.60;;;;;;5075195;28;20028;-84
2021/08/31 04:40:10;;;;;;;2.45;2.08;;;16.20;63.60;;;;;;5075040;28;20050;-82
2021/08/31 04:42:36;;;;;;;3.55;2.70;;;16.20;63.60;;;;;;5091049;28;20031;-83
2021/08/31 04:45:02;;;;;;;3.03;2.63;;;16.20;63.70;;;;;;5074583;28;20027;-82
2021/08/31 04:47:28;;;;;;;2.97;2.58;;;16.20;63.70;;;;;;5060913;28;20024;-79
2021/08/31 04:49:54;;;;;;;2.90;2.58;;;16.10;63.60;;;;;;5063233;28;20029;-81
2021/08/31 04:52:20;;;;;;;2.50;2.30;;;16.10;63.60;;;;;;5047219;28;20075;-82
2021/08/31 04:54:46;;;;;;;4.28;2.63;;;16.10;63.70;;;;;;5057193;28;20116;-84
2021/08/31 04:57:12;;;;;;;2.90;2.50;;;16.10;63.70;;;;;;5059076;28;20581;-83
2021/08/31 04:59:38;;;;;;;3.17;2.30;;;16.10;63.80;;;;;;5042553;28;20119;-83
2021/08/31 05:02:05;;;;;;;3.50;2.78;;;16.10;63.80;;;;;;5065560;28;20116;-82
2021/08/31 05:04:32;;;;;;;3.22;2.30;;;16.00;63.60;;;;;;5060595;28;20674;-79
2021/08/31 05:06:58;;;;;;;2.83;2.58;;;16.10;63.80;;;;;;5056781;28;20033;-82
2021/08/31 05:09:24;;;;;;;2.63;2.40;;;16.10;63.90;;;;;;5055688;28;20028;-80
2021/08/31 05:11:50;;;;;;;2.85;2.30;;;16.00;63.80;;;;;;5050339;28;20056;-78
2021/08/31 05:14:16;;;;;;;3.17;2.63;;;16.00;63.80;;;;;;5060954;28;20037;-82
2021/08/31 05:16:42;;;;;;;2.67;2.30;;;16.00;63.80;;;;;;5070693;28;20052;-81
2021/08/31 05:19:09;;;;;;;3.20;2.47;;;16.00;63.80;;;;;;5070215;28;20480;-82
2021/08/31 05:21:35;;;;;;;3.25;2.65;;;16.00;63.90;;;;;;5065288;28;20383;-81
2021/08/31 05:24:02;;;;;;;4.15;2.45;;;16.00;63.90;;;;;;5066835;28;20115;-82
2021/08/31 05:26:31;;;;;;;3.17;2.80;;;16.00;63.90;;;;;;5065202;28;20279;-81
2021/08/31 05:28:57;;;;;;;3.95;2.42;;;15.90;64.30;;;;;;5058553;28;20032;-83
2021/08/31 05:31:23;;;;;;;2.65;2.20;;;16.00;64.00;;;;;;5047942;28;20125;-89
2021/08/31 05:33:49;;;;;;;2.88;2.45;;;15.90;63.80;;;;;;5048780;28;20582;-81
2021/08/31 05:36:15;;;;;;;2.70;2.50;;;15.90;63.90;;;;;;5049056;28;20105;-80
2021/08/31 05:38:41;;;;;;;3.55;2.80;;;15.90;63.90;;;;;;5047735;28;20047;-81
2021/08/31 05:41:07;;;;;;;4.35;3.20;;;15.90;64.00;;;;;;5048446;28;20028;-84
2021/08/31 05:43:33;;;;;;;3.95;3.03;;;15.90;64.10;;;;;;5064605;28;20515;-83
2021/08/31 05:45:59;;;;;;;4.93;2.78;;;15.90;64.10;;;;;;5065335;28;20042;-83
2021/08/31 05:48:25;;;;;;;4.18;2.75;;;15.90;64.10;;;;;;5073100;28;20036;-84
2021/08/31 05:50:51;;;;;;;4.40;2.90;;;15.90;64.10;;;;;;5049727;28;20024;-85
2021/08/31 05:53:17;;;;;;;5.22;2.83;;;15.90;64.10;;;;;;5066180;28;20127;-86
2021/08/31 05:55:43;;;;;;;4.95;2.83;;;15.90;64.20;;;;;;5066021;28;20207;-86
2021/08/31 05:58:08;;;;;;;3.78;3.25;;;15.90;64.20;;;;;;5065064;28;20044;-82
2021/08/31 06:00:34;;;;;;;4.20;3.20;;;15.90;64.20;;;;;;5064863;28;20553;-81
2021/08/31 06:03:00;;;;;;;4.57;3.63;;;15.90;64.20;;;;;;5064871;28;20046;-82
2021/08/31 06:05:26;;;;;;;4.60;3.80;;;15.90;64.20;;;;;;5064135;28;20031;-81
2021/08/31 06:07:52;;;;;;;4.50;3.78;;;15.90;64.20;;;;;;5071985;28;20028;-90
2021/08/31 06:10:18;;;;;;;3.75;2.85;;;16.00;64.40;;;;;;5062282;28;20411;-85
2021/08/31 06:12:45;;;;;;;3.38;3.08;;;16.00;64.40;;;;;;5072165;28;20032;-82
2021/08/31 06:15:11;;;;;;;2.95;2.65;;;16.00;64.40;;;;;;5085107;28;20084;-84
2021/08/31 06:17:40;;;;;;;4.40;3.58;;;16.00;64.40;;;;;;5078164;28;20028;-87
2021/08/31 06:20:08;;;;;;;5.85;3.15;;;16.00;64.40;;;;;;5065782;28;20108;-82
2021/08/31 06:22:34;;;;;;;4.05;3.20;;;16.10;64.50;;;;;;5065846;28;20123;-81
2021/08/31 06:25:00;;;;;;;3.40;3.10;;;16.10;64.50;;;;;;5064219;28;20344;-83
2021/08/31 06:27:26;;;;;;;4.30;3.55;;;16.10;65.00;;;;;;5065838;28;20056;-81
2021/08/31 06:29:54;;;;;;;3.97;3.30;;;16.10;64.50;;;;;;5064445;28;20062;-82
2021/08/31 06:32:20;;;;;;;4.15;3.40;;;16.10;64.50;;;;;;5061741;28;20028;-83
2021/08/31 06:34:46;;;;;;;4.78;3.70;;;16.10;64.70;;;;;;5061617;28;20120;-84
2021/08/31 06:37:12;;;;;;;4.88;3.75;;;16.20;65.30;;;;;;5060895;28;20378;-82
2021/08/31 06:39:37;;;;;;;5.90;4.18;;;16.20;65.60;;;;;;5063784;28;20465;-84
2021/08/31 06:42:04;;;;;;;5.25;3.85;;;16.20;66.20;;;;;;5063665;28;20078;-83
2021/08/31 06:44:30;;;;;;;4.47;3.42;;;16.30;65.80;;;;;;5064217;28;20048;-82
2021/08/31 06:46:56;;;;;;;4.75;3.58;;;16.30;65.90;;;;;;5061988;28;20435;-83
2021/08/31 06:49:22;;;;;;;5.97;3.78;;;16.30;65.80;;;;;;5081760;28;20115;-84
2021/08/31 06:51:48;;;;;;;5.25;3.83;;;16.40;65.90;;;;;;5083837;28;20103;-85
2021/08/31 06:54:14;;;;;;;4.72;3.42;;;16.40;65.90;;;;;;5063823;28;20065;-83
2021/08/31 06:56:40;;;;;;;5.03;4.18;;;16.40;65.80;;;;;;5064894;28;20121;-83
2021/08/31 06:59:06;;;;;;;6.20;3.30;;;16.50;65.90;;;;;;5061526;28;20028;-82
2021/08/31 07:01:32;;;;;;;6.18;3.88;;;16.50;65.90;;;;;;5066390;28;20028;-83
2021/08/31 07:03:58;;;;;;;5.78;3.40;;;16.50;65.80;;;;;;5065479;28;20059;-82
2021/08/31 07:06:24;;;;;;;4.07;3.67;;;16.60;65.80;;;;;;5062955;28;20440;-83
2021/08/31 07:08:50;;;;;;;7.93;4.38;;;16.60;66.30;;;;;;5062936;28;20037;-80
2021/08/31 07:11:16;;;;;;;8.02;3.92;;;16.70;65.80;;;;;;5062602;28;20040;-82
2021/08/31 07:13:42;;;;;;;7.07;4.70;;;16.70;65.80;;;;;;5077464;28;20032;-82
2021/08/31 07:16:08;;;;;;;4.70;4.13;;;16.80;65.90;;;;;;5083312;28;20343;-83
2021/08/31 07:18:34;;;;;;;7.80;4.15;;;16.90;65.90;;;;;;5072981;28;20028;-83
2021/08/31 07:21:00;;;;;;;7.03;4.10;;;17.00;66.00;;;;;;5046069;28;20158;-84
2021/08/31 07:23:26;;;;;;;4.28;3.72;;;17.00;65.90;;;;;;5064049;28;20581;-83
2021/08/31 07:25:52;;;;;;;8.30;4.47;;;17.10;66.00;;;;;;5062968;28;20155;-82
2021/08/31 07:28:18;;;;;;;5.20;4.65;;;17.10;65.90;;;;;;5045860;28;20121;-83
2021/08/31 07:30:44;;;;;;;9.00;4.38;;;17.20;65.90;;;;;;5063052;28;20036;-83
2021/08/31 07:33:11;;;;;;;4.95;4.10;;;17.30;66.00;;;;;;5061681;28;20207;-83
2021/08/31 07:35:38;;;;;;;4.70;3.70;;;17.40;66.00;;;;;;5063013;28;20037;-82
2021/08/31 07:38:05;;;;;;;4.00;3.63;;;17.40;65.90;;;;;;5071729;28;20059;-83
2021/08/31 07:40:32;;;;;;;10.73;4.20;;;17.50;66.00;;;;;;5082902;28;20099;-80
2021/08/31 07:42:58;;;;;;;4.38;3.97;;;17.60;66.10;;;;;;5082339;28;20032;-82
2021/08/31 07:45:24;;;;;;;9.25;3.88;;;17.60;66.00;;;;;;5082482;28;20081;-82
2021/08/31 07:47:50;;;;;;;4.07;3.20;;;17.70;66.00;;;;;;5049197;28;20032;-82
2021/08/31 07:50:17;;;;;;;4.55;3.67;;;17.80;66.10;;;;;;5084585;28;20028;-81
2021/08/31 07:52:43;;;;;;;4.18;3.22;;;17.80;66.10;;;;;;5077806;28;20036;-82
2021/08/31 07:55:10;;;;;;;4.13;3.38;;;17.90;66.10;;;;;;5063117;28;20039;-82
2021/08/31 07:57:38;;;;;;;6.47;3.85;;;17.90;66.00;;;;;;5048162;28;21179;-83
2021/08/31 08:00:05;;;;;;;4.18;3.25;;;18.00;65.90;;;;;;5083081;28;20025;-81
2021/08/31 08:02:34;;;;;;;8.20;3.25;;;18.00;65.90;;;;;;5079846;28;20032;-83
2021/08/31 08:05:01;;;;;;;3.83;2.80;;;18.10;65.80;;;;;;5066350;28;20024;-82
2021/08/31 08:07:28;;;;;;;5.78;3.47;;;18.20;65.80;;;;;;5066573;28;20025;-78
2021/08/31 08:09:54;;;;;;;4.63;3.47;;;18.30;65.80;;;;;;5066447;28;20487;-82
2021/08/31 08:12:21;;;;;;;5.05;3.90;;;18.40;65.80;;;;;;5066300;28;20037;-83
2021/08/31 08:14:50;;;;;;;4.28;3.88;;;18.50;65.80;;;;;;5067017;28;20037;-82
2021/08/31 08:17:18;;;;;;;15.30;3.03;;;18.50;65.60;;;;;;5070366;28;20460;-81
2021/08/31 08:19:44;;;;;;;3.88;3.10;;;18.60;65.60;;;;;;5067334;28;20031;-83
2021/08/31 08:22:11;;;;;;;6.38;3.22;;;18.70;65.60;;;;;;5066836;28;20032;-82
2021/08/31 08:24:37;;;;;;;5.43;3.67;;;18.70;65.40;;;;;;5065506;28;20067;-82
2021/08/31 08:27:04;;;;;;;4.15;3.45;;;18.90;65.60;;;;;;5065528;28;20524;-82
2021/08/31 08:29:30;;;;;;;2.55;2.28;;;18.90;65.40;;;;;;5065246;28;20348;-81
2021/08/31 08:31:56;;;;;;;4.60;3.25;;;19.10;65.50;;;;;;5065712;28;20020;-82
2021/08/31 08:34:23;;;;;;;5.18;3.22;;;19.10;65.30;;;;;;5049070;28;20025;-82
2021/08/31 08:36:50;;;;;;;4.38;3.38;;;19.20;65.30;;;;;;5065484;28;20037;-80
2021/08/31 08:39:16;;;;;;;6.22;3.47;;;19.30;65.20;;;;;;5066364;28;20028;-82
2021/08/31 08:41:42;;;;;;;3.90;3.15;;;19.40;65.10;;;;;;5049062;28;20032;-81
2021/08/31 08:44:08;;;;;;;4.07;3.08;;;19.50;65.10;;;;;;5083100;28;20509;-81
2021/08/31 08:46:35;;;;;;;3.47;2.90;;;19.60;65.10;;;;;;5085894;28;20379;-83
2021/08/31 08:49:01;;;;;;;5.95;3.60;;;19.60;64.90;;;;;;5073070;28;20040;-83
2021/08/31 08:51:27;;;;;;;4.03;3.20;;;19.70;64.80;;;;;;5066435;28;20041;-82
2021/08/31 08:53:53;;;;;;;3.30;3.00;;;19.80;64.80;;;;;;5065653;28;20452;-82
2021/08/31 08:56:20;;;;;;;4.00;3.17;;;19.90;64.80;;;;;;5067400;28;20037;-81
2021/08/31 08:58:47;;;;;;;3.70;3.08;;;20.00;64.70;;;;;;5065139;28;20227;-82
2021/08/31 09:01:13;;;;;;;4.32;3.03;;;20.00;64.50;;;;;;5066929;28;20432;-82
2021/08/31 09:03:42;;;;;;;6.65;3.60;;;20.10;64.50;;;;;;5065519;28;20434;-83
2021/08/31 09:06:20;;;;;;;4.13;3.25;;;20.20;64.40;;;;;;5054838;28;20029;-84
2021/08/31 09:08:59;;;;;;;5.22;3.55;;;20.30;64.30;;;;;;5062040;28;20031;-84
2021/08/31 09:11:30;;;;;;;5.97;3.72;;;20.30;64.10;;;;;;5066601;28;20027;-82
2021/08/31 09:14:28;;;;;;;3.75;3.30;;;20.40;64.10;;;;;;5081805;28;20246;-83
2021/08/31 09:17:00;;;;;;;4.65;3.33;;;20.50;64.00;;;;;;5084951;28;20068;-83
2021/08/31 09:19:31;;;;;;;5.47;3.35;;;20.60;63.90;;;;;;5068817;28;20052;-83
2021/08/31 09:22:22;;;;;;;5.50;3.97;;;20.70;63.80;;;;;;5064885;28;20025;-82
2021/08/31 09:25:02;;;;;;;5.57;3.63;;;20.80;63.70;;;;;;5028361;28;20099;-84
2021/08/31 09:27:32;;;;;;;7.22;3.38;;;20.90;63.60;;;;;;5046564;28;20077;-83
2021/08/31 09:30:18;;;;;;;6.30;4.40;;;21.00;63.60;;;;;;5066973;28;20091;-83
2021/08/31 09:33:08;;;;;;;7.55;4.28;;;21.00;63.20;;;;;;5065617;28;20107;-84
2021/08/31 09:35:40;;;;;;;5.45;4.40;;;21.10;63.20;;;;;;5068145;28;20052;-84
2021/08/31 09:38:07;;;;;;;8.27;4.40;;;21.30;63.30;;;;;;5064817;28;20438;-81
2021/08/31 09:40:46;;;;;;;6.38;3.83;;;21.40;63.30;;;;;;5067069;28;20464;-83
2021/08/31 09:43:18;;;;;;;4.40;4.00;;;21.40;63.00;;;;;;5049593;28;20079;-84
2021/08/31 09:45:50;;;;;;;8.10;4.90;;;21.60;63.20;;;;;;5065435;28;20055;-83
2021/08/31 09:48:18;;;;;;;8.23;4.25;;;21.60;62.80;;;;;;5076982;28;20028;-83
2021/08/31 09:50:50;;;;;;;5.30;4.10;;;21.70;62.80;;;;;;5064614;28;20036;-83
2021/08/31 09:53:28;;;;;;;4.95;4.45;;;21.90;62.90;;;;;;5066193;28;20397;-84
2021/08/31 09:56:07;;;;;;;7.13;4.43;;;21.90;62.50;;;;;;5064707;28;20047;-83
2021/08/31 09:58:44;;;;;;;4.55;4.10;;;22.00;62.40;;;;;;5066100;28;20020;-82
2021/08/31 10:01:11;;;;;;;7.82;3.85;;;22.10;62.40;;;;;;5047682;28;20055;-84
2021/08/31 10:03:39;;;;;;;5.47;4.30;;;22.20;62.30;;;;;;5076888;28;20436;-83
2021/08/31 10:06:06;;;;;;;4.72;4.00;;;22.20;62.60;;;;;;5085733;28;20035;-81
2021/08/31 10:08:35;;;;;;;8.20;4.72;;;22.40;62.30;;;;;;5057520;28;20031;-82
2021/08/31 10:11:02;;;;;;;7.70;4.50;;;22.40;62.00;;;;;;5065242;28;20300;-80
2021/08/31 10:13:30;;;;;;;4.53;3.78;;;22.50;62.10;;;;;;5063264;28;20171;-79
2021/08/31 10:15:58;;;;;;;6.22;4.68;;;22.50;61.90;;;;;;5064808;28;20475;-78
2021/08/31 10:18:27;;;;;;;5.35;4.80;;;22.50;61.80;;;;;;5075284;28;20028;-79
2021/08/31 10:20:57;;;;;;;6.88;4.93;;;22.60;61.90;;;;;;5031744;28;20033;-79
2021/08/31 10:23:31;;;;;;;6.22;4.47;;;22.60;61.70;;;;;;5038940;28;20039;-79
2021/08/31 10:26:22;;;;;;;9.35;5.60;;;22.60;61.60;;;;;;5064503;28;20032;-81
2021/08/31 10:28:50;;;;;;;6.25;4.40;;;22.70;61.80;;;;;;5054566;28;20113;-85
2021/08/31 10:31:32;;;;;;;7.95;5.13;;;22.70;61.70;;;;;;5054833;28;20039;-77
2021/08/31 10:33:58;;;;;;;6.80;4.93;;;22.90;61.80;;;;;;5056030;28;20028;-75
2021/08/31 10:36:44;;;;;;;5.35;4.85;;;23.00;61.80;;;;;;5053458;28;20047;-82
2021/08/31 10:39:10;;;;;;;8.73;5.53;;;23.00;61.40;;;;;;5056866;28;20462;-82
2021/08/31 10:41:47;;;;;;;6.50;5.55;;;23.00;61.30;;;;;;5049224;28;20113;-82
2021/08/31 10:44:38;;;;;;;7.60;6.80;;;23.10;61.30;;;;;;5079242;28;20063;-81
2021/08/31 10:47:05;;;;;;;7.15;6.53;;;23.10;61.20;;;;;;5061539;28;20399;-82
2021/08/31 10:49:31;;;;;;;7.40;6.65;;;23.20;61.30;;;;;;5052212;28;20375;-81
2021/08/31 10:52:06;;;;;;;7.53;6.75;;;23.20;61.20;;;;;;5048563;28;20248;-80
2021/08/31 10:54:46;;;;;;;8.32;6.82;;;23.20;61.00;;;;;;5066223;28;20028;-80
2021/08/31 10:57:34;;;;;;;6.90;6.22;;;23.20;60.90;;;;;;5069500;28;20056;-80
2021/08/31 11:00:05;;;;;;;6.90;5.93;;;23.20;60.80;;;;;;5047195;28;20237;-82
2021/08/31 11:02:49;;;;;;;8.98;6.97;;;23.20;60.90;;;;;;5066195;28;20024;-81
2021/08/31 11:05:18;;;;;;;6.40;5.85;;;23.20;61.00;;;;;;5071860;28;20032;-81
2021/08/31 11:07:52;;;;;;;7.13;6.28;;;23.20;61.00;;;;;;5052017;28;20541;-81
2021/08/31 11:10:29;;;;;;;7.25;6.22;;;23.20;60.90;;;;;;5067016;28;20055;-81
2021/08/31 11:12:56;;;;;;;6.68;6.05;;;23.10;60.80;;;;;;5070485;28;20028;-85
2021/08/31 11:15:27;;;;;;;8.27;6.53;;;23.10;60.90;;;;;;5070691;28;20074;-82
2021/08/31 11:17:54;;;;;;;7.00;6.15;;;23.20;61.10;;;;;;5075630;28;20033;-83
2021/08/31 11:20:25;;;;;;;6.28;5.68;;;23.20;61.10;;;;;;5047663;28;20051;-81
2021/08/31 11:23:05;;;;;;;6.10;5.53;;;23.20;60.90;;;;;;5063386;28;20483;-83
2021/08/31 11:25:46;;;;;;;6.25;5.45;;;23.20;60.80;;;;;;5062121;28;20182;-81
2021/08/31 11:28:33;;;;;;;6.47;5.85;;;23.20;60.70;;;;;;5045579;28;20029;-82
2021/08/31 11:31:07;;;;;;;8.68;5.88;;;23.10;60.60;;;;;;5060307;28;20068;-80
2021/08/31 11:33:42;;;;;;;6.75;5.95;;;23.10;60.70;;;;;;5077343;28;20048;-82
2021/08/31 11:36:09;;;;;;;9.50;6.20;;;23.00;60.60;;;;;;5074186;28;20028;-85
2021/08/31 11:38:38;;;;;;;9.90;6.85;;;23.00;60.30;;;;;;5044545;28;20037;-80
2021/08/31 11:41:24;;;;;;;7.22;6.53;;;22.80;59.90;;;;;;5061903;28;20090;-79
2021/08/31 11:43:54;;;;;;;6.85;5.85;;;22.50;59.40;;;;;;5081337;28;20040;-79
2021/08/31 11:46:25;;;;;;;8.38;6.03;;;22.30;59.50;;;;;;5064929;28;20406;-80
2021/08/31 11:49:11;;;;;;;7.63;5.45;;;22.10;59.40;;;;;;5070482;28;20036;-80
2021/08/31 11:51:38;;;;;;;8.77;5.60;;;21.90;59.30;;;;;;5065971;28;20043;-80
2021/08/31 11:54:07;;;;;;;5.82;5.32;;;21.90;59.50;;;;;;5048872;28;20340;-79
2021/08/31 11:56:34;;;;;;;6.63;5.88;;;21.90;59.60;;;;;;5065089;28;20488;-79
2021/08/31 11:59:00;;;;;;;9.15;5.70;;;21.80;59.30;;;;;;5066672;28;20036;-79
2021/08/31 12:01:28;;;;;;;10.05;5.95;;;21.80;59.30;;;;;;5065575;28;20025;-83
2021/08/31 12:03:54;;;;;;;6.65;5.97;;;21.80;59.40;;;;;;5083243;28;20032;-77
2021/08/31 12:06:21;;;;;;;9.85;6.32;;;21.70;59.20;;;;;;5085206;28;20062;-80
2021/08/31 12:08:47;;;;;;;10.35;6.60;;;21.70;59.10;;;;;;5087702;28;20118;-83
2021/08/31 12:11:15;;;;;;;9.60;6.45;;;21.70;59.00;;;;;;5086919;28;20091;-82
2021/08/31 12:13:44;;;;;;;6.10;5.43;;;21.60;58.90;;;;;;5072869;28;20418;-82
2021/08/31 12:16:12;;;;;;;6.18;4.82;;;21.70;59.20;;;;;;5065579;28;20052;-81
2021/08/31 12:18:38;;;;;;;8.43;5.72;;;21.70;59.80;;;;;;5054268;28;20024;-78
2021/08/31 12:21:20;;;;;;;5.80;5.22;;;21.80;59.40;;;;;;5059701;28;20033;-79
2021/08/31 12:23:48;;;;;;;5.03;4.53;;;21.80;59.30;;;;;;5048995;28;20040;-81
2021/08/31 12:26:28;;;;;;;6.15;5.55;;;21.90;59.50;;;;;;5065198;28;20100;-79
2021/08/31 12:29:03;;;;;;;7.22;4.70;;;22.10;59.70;;;;;;5060443;28;20040;-81
2021/08/31 12:31:30;;;;;;;5.07;4.50;;;22.20;59.70;;;;;;5068901;28;20752;-81
2021/08/31 12:33:56;;;;;;;4.72;4.20;;;22.30;59.70;;;;;;5085140;28;20035;-79
2021/08/31 12:36:33;;;;;;;5.60;4.03;;;22.40;59.70;;;;;;5084997;28;20032;-79
2021/08/31 12:39:06;;;;;;;4.97;4.07;;;22.60;59.90;;;;;;5086682;28;20039;-79
2021/08/31 12:41:40;;;;;;;4.13;3.80;;;22.70;59.90;;;;;;5068868;28;20121;-79
2021/08/31 12:44:15;;;;;;;4.75;4.22;;;22.90;60.00;;;;;;5068958;28;20821;-79
2021/08/31 12:46:41;;;;;;;5.15;3.72;;;23.10;60.00;;;;;;5065176;28;20029;-81
2021/08/31 12:49:13;;;;;;;4.47;3.85;;;23.20;60.00;;;;;;5070040;28;20134;-80
2021/08/31 12:51:41;;;;;;;4.00;3.60;;;23.30;59.90;;;;;;5067134;28;20407;-79